Time;durP1;ratioP1;P1;durP2;ratioP2;P2;SDS_P1;SDS_P2;PMS_P1;PMS_P2;Temp;Humidity;BMP_temperature;BMP_pressure;BME280_temperature;BME280_humidity;BME280_pressure;Samples;Min_cycle;Max_cycle;Signal;HPM_P1;HPM_P2
2022/12/10 00:01:18;;;;;;;30.45;16.85;;;;;;;6.49;97.92;100815.68;1768344;80;21417;-85
2022/12/10 00:03:45;;;;;;;30.85;17.00;;;;;;;6.48;97.80;100822.66;1733710;80;21402;-85
2022/12/10 00:06:16;;;;;;;28.23;17.55;;;;;;;6.48;97.90;100819.21;1750531;80;21009;-86
2022/12/10 00:08:44;;;;;;;30.23;16.70;;;;;;;6.49;97.97;100816.55;1729186;80;21493;-85
2022/12/10 00:11:13;;;;;;;33.92;18.52;;;;;;;6.54;98.18;100817.20;1757536;78;20994;-86
2022/12/10 00:13:40;;;;;;;28.38;16.93;;;;;;;6.58;98.14;100814.00;1791389;79;21319;-85
2022/12/10 00:16:09;;;;;;;31.70;19.10;;;;;;;6.61;97.88;100804.78;1777352;79;21014;-87
2022/12/10 00:18:36;;;;;;;36.10;19.67;;;;;;;6.64;97.53;100806.78;1780036;79;20866;-87
2022/12/10 00:21:09;;;;;;;32.13;17.67;;;;;;;6.67;97.38;100808.88;1785076;79;21188;-85
2022/12/10 00:23:36;;;;;;;31.17;17.45;;;;;;;6.71;97.38;100818.27;1773231;79;21134;-85
2022/12/10 00:26:13;;;;;;;29.82;16.95;;;;;;;6.74;97.49;100815.10;1720691;81;21083;-85
2022/12/10 00:28:40;;;;;;;33.23;19.05;;;;;;;6.81;97.73;100822.21;1774009;79;21121;-85
2022/12/10 00:31:18;;;;;;;28.55;16.67;;;;;;;6.87;97.67;100810.66;1796630;77;20963;-87
2022/12/10 00:33:45;;;;;;;34.40;18.00;;;;;;;6.93;97.78;100809.12;1790393;77;21524;-85
2022/12/10 00:36:18;;;;;;;33.42;16.62;;;;;;;6.99;97.63;100804.49;1805507;77;20893;-84
2022/12/10 00:38:45;;;;;;;35.33;19.40;;;;;;;7.04;97.30;100807.74;1793150;77;20877;-86
2022/12/10 00:41:12;;;;;;;33.38;18.07;;;;;;;7.07;97.07;100806.80;1785608;77;20837;-86
2022/12/10 00:43:39;;;;;;;31.30;16.77;;;;;;;7.10;96.90;100809.72;1797487;77;20942;-85
2022/12/10 00:46:06;;;;;;;27.70;16.90;;;;;;;7.11;96.96;100803.11;1811115;77;21294;-86
2022/12/10 00:48:34;;;;;;;30.88;17.50;;;;;;;7.11;96.91;100810.94;1810185;77;21152;-85
2022/12/10 00:51:15;;;;;;;30.20;16.67;;;;;;;7.14;97.25;100805.61;1797822;77;20992;-86
2022/12/10 00:53:43;;;;;;;28.98;17.10;;;;;;;7.20;97.31;100799.27;1797650;77;20886;-86
2022/12/10 00:56:11;;;;;;;33.60;16.67;;;;;;;7.21;97.13;100803.59;1722448;81;20941;-87
2022/12/10 00:58:38;;;;;;;31.73;16.02;;;;;;;7.23;97.21;100802.61;1766561;79;21131;-85
2022/12/10 01:01:15;;;;;;;32.23;17.82;;;;;;;7.23;96.96;100809.13;1784907;79;21342;-86
2022/12/10 01:03:42;;;;;;;34.20;17.37;;;;;;;7.23;96.59;100806.98;1741235;81;20987;-85
2022/12/10 01:06:21;;;;;;;27.65;16.20;;;;;;;7.23;96.47;100797.85;1791517;79;20952;-86
2022/12/10 01:08:49;;;;;;;26.75;14.98;;;;;;;7.23;96.28;100800.46;1716121;82;20990;-86
2022/12/10 01:11:19;;;;;;;28.98;16.15;;;;;;;7.20;96.23;100801.88;1744188;81;21230;-84
2022/12/10 01:13:46;;;;;;;25.08;14.78;;;;;;;7.18;96.28;100795.88;1750132;79;21576;-86
2022/12/10 01:16:15;;;;;;;25.82;16.42;;;;;;;7.16;96.09;100805.52;1792492;79;20893;-86
2022/12/10 01:18:42;;;;;;;27.77;14.70;;;;;;;7.13;96.07;100799.15;1743715;80;21164;-85
2022/12/10 01:21:12;;;;;;;25.68;15.40;;;;;;;7.06;96.00;100795.95;1757557;79;21039;-85
2022/12/10 01:23:40;;;;;;;30.60;15.65;;;;;;;6.99;96.05;100801.88;1794382;78;21133;-86
2022/12/10 01:26:10;;;;;;;22.82;13.55;;;;;;;6.95;96.13;100806.83;1781966;79;21015;-86
2022/12/10 01:28:38;;;;;;;25.80;14.65;;;;;;;6.92;96.02;100804.36;1798998;77;20888;-86
2022/12/10 01:31:08;;;;;;;27.15;14.95;;;;;;;6.87;95.96;100808.06;1809055;78;20917;-85
2022/12/10 01:33:35;;;;;;;24.32;14.87;;;;;;;6.80;96.02;100802.25;1791778;77;21154;-86
2022/12/10 01:36:10;;;;;;;22.30;13.72;;;;;;;6.76;96.30;100801.55;1795813;77;21134;-85
2022/12/10 01:38:36;;;;;;;21.85;14.07;;;;;;;6.76;96.53;100804.59;1780136;77;20975;-86
2022/12/10 01:41:05;;;;;;;19.17;13.25;;;;;;;6.74;96.63;100800.77;1796738;77;21449;-86
2022/12/10 01:43:56;;;;;;;23.67;13.48;;;;;;;6.74;96.64;100802.53;1743144;79;20979;-86
2022/12/10 01:46:34;;;;;;;17.73;12.23;;;;;;;6.75;96.79;100805.05;1797830;77;21038;-85
2022/12/10 01:49:06;;;;;;;23.85;13.22;;;;;;;6.77;96.76;100803.23;1782133;79;21231;-85
2022/12/10 01:51:34;;;;;;;19.48;14.10;;;;;;;6.80;96.83;100808.34;1796246;77;20868;-85
2022/12/10 01:54:07;;;;;;;17.98;13.22;;;;;;;6.83;96.94;100803.45;1790715;77;20999;-85
2022/12/10 01:56:36;;;;;;;23.00;15.38;;;;;;;6.85;96.71;100801.62;1760899;79;20912;-85
2022/12/10 01:59:03;;;;;;;18.50;12.28;;;;;;;6.85;96.42;100808.98;1789827;77;21603;-85
2022/12/10 02:01:49;;;;;;;20.88;13.00;;;;;;;6.84;96.04;100802.52;1796464;79;21187;-84
2022/12/10 02:04:45;;;;;;;17.98;11.48;;;;;;;6.82;95.82;100804.34;1791189;77;21630;-84
2022/12/10 02:07:32;;;;;;;18.42;12.68;;;;;;;6.80;95.79;100812.25;1747810;80;20904;-86
2022/12/10 02:10:23;;;;;;;18.90;12.98;;;;;;;6.79;95.84;100809.23;1791404;79;20999;-85
2022/12/10 02:13:07;;;;;;;16.65;10.90;;;;;;;6.80;95.92;100801.83;1782297;79;20947;-85
2022/12/10 02:15:39;;;;;;;16.62;11.78;;;;;;;6.82;95.87;100797.83;1784490;79;21866;-84
2022/12/10 02:18:12;;;;;;;22.05;12.85;;;;;;;6.84;95.81;100792.94;1774663;79;20971;-85
2022/12/10 02:20:49;;;;;;;17.27;11.93;;;;;;;6.85;95.67;100793.81;1770920;79;21193;-85
2022/12/10 02:23:30;;;;;;;16.55;12.13;;;;;;;6.87;95.63;100781.56;1795170;77;20939;-86
2022/12/10 02:26:08;;;;;;;18.02;11.78;;;;;;;6.91;95.47;100777.89;1761624;79;21468;-86
2022/12/10 02:29:03;;;;;;;17.05;11.68;;;;;;;6.96;95.05;100788.12;1759224;78;21150;-85
2022/12/10 02:31:30;;;;;;;17.92;13.18;;;;;;;6.98;94.76;100775.87;1789131;79;20945;-86
2022/12/10 02:33:59;;;;;;;17.62;13.03;;;;;;;6.98;94.60;100781.95;1788964;79;20854;-84
2022/12/10 02:36:30;;;;;;;16.90;11.55;;;;;;;7.00;94.64;100775.34;1736951;80;21121;-86
2022/12/10 02:38:57;;;;;;;19.65;12.60;;;;;;;7.00;94.39;100773.61;1775925;80;21496;-86
2022/12/10 02:41:38;;;;;;;17.48;11.68;;;;;;;7.00;94.23;100766.22;1760573;79;21369;-85
2022/12/10 02:44:08;;;;;;;23.02;14.47;;;;;;;6.99;94.08;100764.55;1733717;78;21003;-85
2022/12/10 02:46:35;;;;;;;25.60;15.32;;;;;;;6.97;94.16;100760.69;1780354;79;21040;-86
2022/12/10 02:49:04;;;;;;;21.95;13.75;;;;;;;6.95;93.96;100765.12;1719229;80;21097;-85
2022/12/10 02:51:31;;;;;;;24.30;13.55;;;;;;;6.94;93.80;100757.38;1773692;79;20966;-86
2022/12/10 02:54:06;;;;;;;22.52;12.50;;;;;;;6.93;93.53;100756.98;1784510;79;21193;-85
2022/12/10 02:56:51;;;;;;;20.02;13.78;;;;;;;6.91;93.41;100752.28;1787667;79;20945;-86
2022/12/10 02:59:39;;;;;;;24.85;13.93;;;;;;;6.93;93.31;100753.06;1736325;80;20946;-85
2022/12/10 03:02:15;;;;;;;21.85;12.93;;;;;;;6.91;93.05;100757.49;1793883;78;21437;-84
2022/12/10 03:05:05;;;;;;;22.62;12.47;;;;;;;6.85;92.95;100758.16;1788897;79;20999;-85
2022/12/10 03:07:48;;;;;;;23.42;13.65;;;;;;;6.81;92.94;100751.84;1802547;77;21232;-85
2022/12/10 03:10:45;;;;;;;23.07;14.38;;;;;;;6.71;92.99;100758.33;1808635;77;20931;-83
2022/12/10 03:13:15;;;;;;;27.10;17.92;;;;;;;6.63;93.45;100754.30;1797669;77;20982;-85
2022/12/10 03:15:41;;;;;;;22.48;14.58;;;;;;;6.61;94.00;100755.27;1794123;77;21074;-85
2022/12/10 03:18:09;;;;;;;23.00;13.72;;;;;;;6.64;94.36;100746.86;1794473;77;20975;-85
2022/12/10 03:20:39;;;;;;;20.97;13.83;;;;;;;6.66;94.10;100741.59;1790819;77;21094;-83
2022/12/10 03:23:08;;;;;;;17.17;12.03;;;;;;;6.63;94.02;100742.57;1799224;77;21405;-85
2022/12/10 03:25:34;;;;;;;17.82;12.98;;;;;;;6.70;94.12;100743.16;1781388;78;20892;-85
2022/12/10 03:28:02;;;;;;;16.20;11.95;;;;;;;6.70;93.93;100743.62;1749278;80;22320;-83
2022/12/10 03:30:31;;;;;;;17.30;12.60;;;;;;;6.68;93.94;100746.28;1776928;79;21015;-82
2022/12/10 03:32:57;;;;;;;18.70;11.93;;;;;;;6.69;94.32;100733.62;1790211;79;21144;-84
2022/12/10 03:35:24;;;;;;;16.07;11.90;;;;;;;6.70;94.15;100734.50;1784558;79;20956;-83
2022/12/10 03:37:50;;;;;;;18.62;11.75;;;;;;;6.69;93.82;100740.14;1780326;79;20892;-85
2022/12/10 03:40:21;;;;;;;16.48;11.73;;;;;;;6.62;93.61;100734.34;1789719;79;21450;-82
2022/12/10 03:42:47;;;;;;;18.35;12.45;;;;;;;6.56;93.82;100728.57;1773665;79;20979;-83
2022/12/10 03:45:14;;;;;;;17.30;12.50;;;;;;;6.53;94.03;100724.77;1773135;80;21840;-83
2022/12/10 03:47:41;;;;;;;16.37;13.78;;;;;;;6.53;94.34;100725.61;1715839;82;21102;-83
2022/12/10 03:50:08;;;;;;;17.62;13.28;;;;;;;6.55;94.26;100715.98;1802871;77;21687;-86
2022/12/10 03:52:35;;;;;;;22.45;15.88;;;;;;;6.57;94.21;100720.67;1793880;77;21016;-84
2022/12/10 03:55:02;;;;;;;18.77;13.68;;;;;;;6.61;94.13;100724.01;1811090;78;20992;-83
2022/12/10 03:57:28;;;;;;;16.90;12.50;;;;;;;6.63;94.05;100726.09;1800570;77;21148;-84
2022/12/10 03:59:55;;;;;;;16.20;11.75;;;;;;;6.65;93.84;100730.79;1800902;77;20919;-85
2022/12/10 04:02:22;;;;;;;15.48;11.80;;;;;;;6.64;93.88;100729.92;1797344;79;20952;-85
2022/12/10 04:04:50;;;;;;;19.20;13.95;;;;;;;6.66;93.75;100729.86;1788474;77;20917;-85
2022/12/10 04:07:16;;;;;;;16.85;13.28;;;;;;;6.67;93.58;100734.18;1797919;77;20883;-85
2022/12/10 08:21:59;;;;;;;35.23;19.23;;;;;;;7.56;100.00;100611.55;1691647;83;20906;-89
2022/12/10 08:24:33;;;;;;;35.20;18.73;;;;;;;7.57;100.00;100608.47;1691367;84;20943;-85
2022/12/10 08:27:02;;;;;;;32.03;18.70;;;;;;;7.59;100.00;100594.42;1691202;83;20867;-87
2022/12/10 08:29:29;;;;;;;28.57;19.05;;;;;;;7.57;100.00;100596.73;1665163;85;21172;-87
2022/12/10 08:31:55;;;;;;;28.45;17.37;;;;;;;7.55;100.00;100582.44;1687182;83;20985;-86
2022/12/10 08:34:26;;;;;;;30.25;18.25;;;;;;;7.54;100.00;100576.02;1686640;83;21002;-88
2022/12/10 08:36:51;;;;;;;34.65;19.02;;;;;;;7.53;100.00;100580.36;1689317;83;20950;-88
2022/12/10 08:39:18;;;;;;;32.78;18.15;;;;;;;7.57;100.00;100577.16;1685586;84;20903;-86
2022/12/10 08:41:46;;;;;;;32.42;18.80;;;;;;;7.57;100.00;100564.11;1689422;83;20962;-86
2022/12/10 08:44:13;;;;;;;31.70;18.35;;;;;;;7.59;100.00;100560.50;1690690;84;20894;-85
2022/12/10 08:46:39;;;;;;;28.17;16.67;;;;;;;7.66;100.00;100555.36;1688740;83;21353;-88
2022/12/10 08:49:06;;;;;;;25.20;15.58;;;;;;;7.70;100.00;100548.70;1686618;83;21459;-88
2022/12/10 08:51:33;;;;;;;30.37;16.60;;;;;;;7.74;100.00;100541.95;1686585;83;20980;-86
2022/12/10 08:53:59;;;;;;;32.35;18.12;;;;;;;7.75;99.87;100543.62;1689804;83;21056;-88
2022/12/10 08:56:27;;;;;;;27.50;16.55;;;;;;;7.83;100.00;100537.57;1691169;84;20946;-86
2022/12/10 08:58:53;;;;;;;27.05;16.93;;;;;;;7.94;99.88;100542.26;1688552;83;21420;-87
2022/12/10 09:01:24;;;;;;;32.25;17.70;;;;;;;7.95;99.42;100529.57;1687466;84;21470;-87
2022/12/10 09:03:51;;;;;;;39.00;17.17;;;;;;;8.01;99.34;100532.34;1686949;84;20903;-87
2022/12/10 09:06:23;;;;;;;30.12;16.77;;;;;;;8.07;99.31;100523.74;1687484;83;21894;-86
2022/12/10 09:08:50;;;;;;;29.75;14.10;;;;;;;8.15;98.84;100519.88;1691004;83;20926;-85
2022/12/10 09:11:21;;;;;;;27.13;15.32;;;;;;;8.21;98.71;100516.97;1688512;84;20958;-85
2022/12/10 09:13:50;;;;;;;28.62;16.12;;;;;;;8.26;98.39;100513.64;1688442;84;20958;-85
2022/12/10 09:16:22;;;;;;;30.50;15.75;;;;;;;8.34;98.26;100514.53;1691632;83;20950;-85
2022/12/10 09:18:48;;;;;;;26.80;15.85;;;;;;;8.41;98.03;100505.50;1692820;83;21315;-87
2022/12/10 09:21:16;;;;;;;29.18;14.60;;;;;;;8.46;97.59;100492.56;1691886;83;21193;-86
2022/12/10 09:23:44;;;;;;;26.87;17.02;;;;;;;8.50;97.26;100478.41;1691590;83;21002;-88
2022/12/10 09:26:14;;;;;;;31.48;18.15;;;;;;;8.52;96.98;100465.73;1690908;83;20914;-88
2022/12/10 09:28:42;;;;;;;27.80;17.25;;;;;;;8.50;96.72;100461.42;1688950;83;20915;-86
2022/12/10 09:31:09;;;;;;;24.20;16.45;;;;;;;8.50;96.55;100456.19;1686761;83;21769;-86
2022/12/10 09:33:36;;;;;;;27.77;15.70;;;;;;;8.53;96.89;100463.48;1686911;85;20978;-85
2022/12/10 09:36:06;;;;;;;21.97;14.68;;;;;;;8.61;96.28;100454.78;1688084;83;21021;-85
2022/12/10 09:38:38;;;;;;;25.88;16.35;;;;;;;8.62;96.01;100451.22;1690151;84;21053;-86
2022/12/10 09:41:22;;;;;;;23.75;15.75;;;;;;;8.68;96.07;100456.12;1690326;83;20919;-87
2022/12/10 09:44:31;;;;;;;22.58;14.55;;;;;;;8.74;95.53;100453.63;1680033;83;21264;-85
2022/12/10 09:46:59;;;;;;;19.40;13.58;;;;;;;8.77;95.19;100445.62;1690220;84;20919;-84
2022/12/10 09:50:08;;;;;;;25.48;13.22;;;;;;;8.83;94.69;100452.67;1647368;84;20990;-86
2022/12/10 09:52:42;;;;;;;16.07;11.73;;;;;;;8.83;94.59;100453.14;1687058;84;21009;-86
2022/12/10 09:55:16;;;;;;;15.72;10.90;;;;;;;8.79;94.24;100446.39;1685260;83;21368;-87
2022/12/10 09:57:46;;;;;;;17.52;11.50;;;;;;;8.77;94.41;100429.47;1686323;84;21977;-87
2022/12/10 10:00:28;;;;;;;20.62;12.33;;;;;;;8.77;94.60;100427.33;1686355;83;21038;-87
2022/12/10 10:02:59;;;;;;;15.80;11.93;;;;;;;8.81;94.47;100417.08;1679515;83;20915;-87
2022/12/10 10:05:36;;;;;;;14.80;11.28;;;;;;;8.84;94.52;100419.04;1685354;84;20990;-87
2022/12/10 10:08:05;;;;;;;18.02;11.90;;;;;;;8.89;94.69;100419.65;1687188;84;20903;-89
2022/12/10 10:10:38;;;;;;;18.35;12.15;;;;;;;8.92;94.42;100416.02;1685055;83;21103;-87
2022/12/10 10:13:20;;;;;;;17.40;12.35;;;;;;;8.91;94.31;100409.08;1685020;83;21027;-87
2022/12/10 10:15:49;;;;;;;16.37;12.35;;;;;;;8.89;94.30;100401.78;1684323;84;21025;-86
2022/12/10 10:18:36;;;;;;;17.05;11.65;;;;;;;8.85;94.37;100399.83;1685619;83;21516;-86
2022/12/10 10:21:09;;;;;;;17.30;11.60;;;;;;;8.82;94.34;100400.45;1687063;85;20997;-85
2022/12/10 10:23:35;;;;;;;16.30;11.88;;;;;;;8.76;94.76;100395.11;1685309;83;22076;-86
2022/12/10 10:26:03;;;;;;;18.07;12.07;;;;;;;8.74;94.95;100391.74;1690156;83;21529;-88
2022/12/10 10:28:31;;;;;;;15.43;9.95;;;;;;;8.73;95.29;100382.66;1686418;83;20950;-86
2022/12/10 10:30:57;;;;;;;14.28;10.75;;;;;;;8.75;95.51;100374.28;1688228;83;20990;-87
2022/12/10 10:33:26;;;;;;;17.12;10.10;;;;;;;8.73;95.72;100378.27;1691151;83;20993;-86
2022/12/10 10:35:58;;;;;;;14.78;10.70;;;;;;;8.73;95.90;100369.59;1690709;83;21276;-85
2022/12/10 10:38:28;;;;;;;14.23;10.32;;;;;;;8.74;96.22;100362.98;1690451;83;20954;-86
2022/12/10 10:41:00;;;;;;;13.48;9.90;;;;;;;8.78;96.46;100367.55;1693131;83;20985;-86
2022/12/10 10:43:32;;;;;;;15.48;10.32;;;;;;;8.77;96.53;100362.80;1689677;84;20931;-86
2022/12/10 10:46:02;;;;;;;15.48;10.80;;;;;;;8.76;96.61;100355.03;1663209;84;21089;-86
2022/12/10 10:48:29;;;;;;;20.05;11.10;;;;;;;8.77;97.07;100358.87;1662929;83;22613;-87
2022/12/10 10:51:23;;;;;;;16.35;10.25;;;;;;;8.82;97.42;100349.46;1693171;83;20946;-88
2022/12/10 10:53:54;;;;;;;16.07;11.53;;;;;;;8.87;97.50;100358.74;1665562;85;20990;-86
2022/12/10 10:56:34;;;;;;;12.95;10.35;;;;;;;8.90;97.40;100353.80;1687933;85;20812;-86
2022/12/10 10:59:18;;;;;;;15.63;10.93;;;;;;;8.91;97.63;100364.62;1686915;84;20899;-86
2022/12/10 11:01:56;;;;;;;22.73;12.10;;;;;;;8.95;97.68;100357.45;1689676;84;21229;-87
2022/12/10 11:04:30;;;;;;;32.15;11.43;;;;;;;8.96;97.62;100339.07;1691340;84;21088;-87
2022/12/10 11:07:01;;;;;;;18.00;9.63;;;;;;;8.94;97.54;100344.85;1686811;84;21013;-87
2022/12/10 11:09:32;;;;;;;29.87;9.83;;;;;;;8.91;98.04;100354.16;1668707;84;20942;-85
2022/12/10 11:12:02;;;;;;;14.18;9.68;;;;;;;8.89;98.57;100349.48;1689120;83;20944;-84
2022/12/10 11:14:33;;;;;;;14.33;9.03;;;;;;;8.93;98.91;100336.14;1687912;85;21130;-86
2022/12/10 11:17:05;;;;;;;35.88;14.28;;;;;;;8.98;99.11;100337.65;1683773;83;20927;-87
2022/12/10 11:19:31;;;;;;;12.25;9.28;;;;;;;9.03;99.18;100340.39;1683278;85;20871;-87
2022/12/10 11:22:19;;;;;;;18.12;8.95;;;;;;;9.08;99.14;100333.11;1658331;83;20895;-86
2022/12/10 11:24:47;;;;;;;20.75;10.23;;;;;;;9.12;98.95;100331.17;1684792;83;20986;-86
2022/12/10 11:27:49;;;;;;;18.87;9.75;;;;;;;9.17;98.86;100323.05;1684839;83;21866;-87
2022/12/10 11:30:23;;;;;;;16.12;10.53;;;;;;;9.17;98.75;100319.95;1687231;83;20958;-86
2022/12/10 11:32:59;;;;;;;14.10;11.33;;;;;;;9.20;98.79;100309.77;1689758;83;21076;-87
2022/12/10 11:35:43;;;;;;;18.65;10.30;;;;;;;9.24;98.93;100311.28;1687645;83;20950;-87
2022/12/10 11:38:29;;;;;;;16.65;10.50;;;;;;;9.26;99.05;100310.25;1684942;83;20907;-87
2022/12/10 11:41:35;;;;;;;18.45;11.68;;;;;;;9.30;99.13;100293.44;1684772;83;21792;-87
2022/12/10 11:44:31;;;;;;;19.80;11.48;;;;;;;9.33;99.26;100292.41;1684572;83;20907;-86
2022/12/10 11:47:15;;;;;;;22.20;11.97;;;;;;;9.37;99.32;100296.53;1684830;83;20942;-86
2022/12/10 11:50:22;;;;;;;18.45;11.03;;;;;;;9.41;99.41;100287.56;1682679;83;20966;-84
2022/12/10 11:53:06;;;;;;;32.63;12.65;;;;;;;9.45;99.55;100273.80;1689396;83;20906;-87
2022/12/10 11:56:03;;;;;;;19.75;11.22;;;;;;;9.50;99.62;100270.46;1686372;83;21205;-88
2022/12/10 11:58:44;;;;;;;18.80;11.05;;;;;;;9.55;99.56;100284.10;1686422;83;20882;-85
2022/12/10 12:01:50;;;;;;;17.87;10.98;;;;;;;9.59;99.48;100284.30;1680624;83;21431;-86
2022/12/10 12:04:46;;;;;;;18.40;12.95;;;;;;;9.62;99.60;100271.00;1685694;83;21009;-87
2022/12/10 12:07:25;;;;;;;18.23;12.58;;;;;;;9.66;99.64;100293.45;1686646;83;20958;-87
2022/12/10 12:10:24;;;;;;;19.77;11.60;;;;;;;9.66;99.55;100272.98;1688851;83;21425;-86
2022/12/10 12:13:18;;;;;;;20.85;14.63;;;;;;;9.69;99.93;100283.25;1634439;87;21035;-87
2022/12/10 12:15:57;;;;;;;18.50;13.68;;;;;;;9.73;99.91;100282.13;1635774;87;21102;-87
2022/12/10 12:18:47;;;;;;;25.32;14.85;;;;;;;9.75;99.80;100271.09;1632860;87;21563;-87
2022/12/10 12:21:15;;;;;;;35.35;15.53;;;;;;;9.77;100.00;100284.94;1635793;86;21078;-88
2022/12/10 12:24:11;;;;;;;25.15;14.98;;;;;;;9.79;100.00;100273.06;1613708;87;21124;-85
2022/12/10 12:26:42;;;;;;;23.67;15.00;;;;;;;9.80;100.00;100267.70;1637925;85;20944;-87
2022/12/10 12:29:17;;;;;;;20.15;13.35;;;;;;;9.85;100.00;100271.34;1637651;86;20959;-88
2022/12/10 12:31:55;;;;;;;;;;;;;;;9.85;100.00;100262.18;1640041;86;21078;-86
2022/12/10 12:34:48;;;;;;;20.45;14.75;;;;;;;9.85;100.00;100264.80;1637934;86;20135;-87
2022/12/10 12:37:17;;;;;;;25.62;19.67;;;;;;;9.84;100.00;100265.27;1637399;86;21226;-86
2022/12/10 12:39:52;;;;;;;19.10;12.23;;;;;;;9.85;100.00;100268.28;1639553;85;21240;-86
2022/12/10 12:42:36;;;;;;;17.48;12.75;;;;;;;9.85;100.00;100263.05;1638573;86;21050;-86
2022/12/10 12:45:23;;;;;;;15.75;12.47;;;;;;;9.88;100.00;100264.63;1611025;86;20976;-87
2022/12/10 12:47:55;;;;;;;15.95;11.93;;;;;;;9.89;100.00;100255.81;1650486;85;20903;-86
2022/12/10 12:50:36;;;;;;;29.50;22.80;;;;;;;9.91;100.00;100262.63;1692453;83;21089;-87
2022/12/10 12:53:04;;;;;;;21.82;14.60;;;;;;;9.94;100.00;100259.01;1692761;83;21064;-86
2022/12/10 12:56:09;;;;;;;27.40;17.62;;;;;;;9.98;100.00;100257.84;1692011;83;20915;-86
2022/12/10 12:58:49;;;;;;;15.80;10.55;;;;;;;10.01;100.00;100248.98;1690433;84;20930;-86
2022/12/10 13:01:24;;;;;;;11.70;9.33;;;;;;;10.02;100.00;100251.48;1691533;83;20987;-87
2022/12/10 13:03:53;;;;;;;11.45;8.95;;;;;;;10.04;100.00;100252.23;1691177;84;20965;-87
2022/12/10 13:06:24;;;;;;;10.18;9.18;;;;;;;10.05;100.00;100249.13;1690503;84;21488;-87
2022/12/10 13:09:19;;;;;;;10.75;9.65;;;;;;;10.07;100.00;100252.50;1687867;84;20902;-85
2022/12/10 13:12:06;;;;;;;14.75;10.93;;;;;;;10.08;100.00;100256.34;1689996;84;21001;-85
2022/12/10 13:14:54;;;;;;;13.18;11.00;;;;;;;10.10;100.00;100245.30;1680714;83;20939;-86
2022/12/10 17:20:17;;;;;;;10.75;7.15;;;;;;;10.43;100.00;100158.06;1764151;80;20975;-91
2022/12/10 17:22:47;;;;;;;18.27;5.53;;;;;;;10.48;100.00;100162.04;1764805;80;20860;-91
2022/12/10 17:25:18;;;;;;;9.68;6.15;;;;;;;10.51;100.00;100152.64;1755800;80;21951;-91
2022/12/10 17:27:47;;;;;;;8.15;4.90;;;;;;;10.56;100.00;100157.58;1765366;79;21101;-94
2022/12/10 17:30:14;;;;;;;9.98;6.40;;;;;;;10.60;100.00;100166.92;1757162;80;20928;-93
2022/12/10 17:32:42;;;;;;;6.92;5.85;;;;;;;10.63;100.00;100162.80;1766287;80;20897;-91
2022/12/10 17:35:11;;;;;;;6.10;4.95;;;;;;;10.67;100.00;100164.28;1689349;79;20933;-92
2022/12/10 17:37:39;;;;;;;12.03;8.80;;;;;;;10.69;100.00;100166.30;1690417;83;21447;-89
2022/12/10 17:40:18;;;;;;;9.35;4.90;;;;;;;10.72;100.00;100158.23;1675225;84;21020;-90
2022/12/10 17:42:45;;;;;;;7.45;4.58;;;;;;;10.74;100.00;100148.48;1663296;84;21527;-90
2022/12/10 17:45:13;;;;;;;8.18;5.20;;;;;;;10.76;100.00;100140.05;1695276;83;20879;-90
2022/12/10 17:47:41;;;;;;;12.28;5.35;;;;;;;10.78;100.00;100136.84;1654054;83;20951;-89
2022/12/10 17:50:29;;;;;;;9.38;5.53;;;;;;;10.81;100.00;100138.41;1696269;82;21430;-91
2022/12/10 17:52:59;;;;;;;11.28;7.22;;;;;;;10.83;100.00;100152.71;1663490;84;20935;-91
2022/12/10 17:58:29;;;;;;;8.28;5.75;;;;;;;10.91;100.00;100156.48;1889483;74;22630;-91
2022/12/10 18:00:57;;;;;;;17.50;8.98;;;;;;;10.87;100.00;100152.87;1864290;77;20934;-89
2022/12/10 18:03:23;;;;;;;11.55;7.75;;;;;;;10.91;100.00;100141.23;1864345;77;21183;-93
2022/12/10 18:05:53;;;;;;;10.38;7.05;;;;;;;10.92;100.00;100135.89;1864107;77;21337;-91
2022/12/10 18:08:22;;;;;;;16.05;8.75;;;;;;;10.91;100.00;100131.57;1863805;77;20958;-93
2022/12/10 18:10:50;;;;;;;16.02;10.20;;;;;;;10.92;100.00;100124.08;1863128;77;20973;-92
2022/12/10 18:13:20;;;;;;;16.75;8.38;;;;;;;10.92;100.00;100125.39;1862846;77;20923;-93
2022/12/10 18:15:46;;;;;;;11.60;7.90;;;;;;;10.93;100.00;100131.47;1863687;77;21116;-92
2022/12/10 18:18:13;;;;;;;14.98;10.13;;;;;;;10.94;100.00;100133.16;1863519;76;20840;-93
2022/12/10 18:20:40;;;;;;;19.02;11.45;;;;;;;10.95;100.00;100133.52;1863850;77;21024;-93
2022/12/10 18:23:09;;;;;;;18.62;10.80;;;;;;;10.93;100.00;100131.47;1863759;77;20839;-92
2022/12/10 18:25:41;;;;;;;20.45;10.95;;;;;;;10.92;100.00;100128.02;1834065;77;20931;-93
2022/12/10 18:28:26;;;;;;;17.30;11.55;;;;;;;10.93;100.00;100142.80;1827936;77;21333;-92
2022/12/10 18:30:54;;;;;;;24.43;12.45;;;;;;;10.93;100.00;100138.86;1863811;77;20863;-92
2022/12/10 18:33:23;;;;;;;21.77;12.80;;;;;;;10.93;100.00;100138.86;1863840;77;20840;-95
2022/12/10 18:35:51;;;;;;;24.87;13.55;;;;;;;10.90;100.00;100129.91;1831762;77;20884;-91
2022/12/10 18:38:20;;;;;;;19.90;14.40;;;;;;;10.90;100.00;100126.45;1861773;77;21470;-94
2022/12/10 18:40:48;;;;;;;21.93;12.75;;;;;;;10.88;100.00;100126.55;1862033;76;21225;-92
2022/12/10 18:43:16;;;;;;;18.67;11.03;;;;;;;10.89;100.00;100126.06;1861656;76;21062;-92
2022/12/10 18:45:43;;;;;;;22.00;10.53;;;;;;;10.89;100.00;100128.69;1859904;76;20879;-93
2022/12/10 18:48:10;;;;;;;25.12;12.85;;;;;;;10.88;100.00;100123.92;1862439;77;20871;-93
2022/12/10 18:50:37;;;;;;;27.13;14.00;;;;;;;10.89;100.00;100128.21;1862945;77;20942;-94
2022/12/10 18:53:06;;;;;;;33.63;16.07;;;;;;;10.88;100.00;100118.67;1864179;76;21212;-93
2022/12/10 18:55:34;;;;;;;28.70;15.05;;;;;;;10.86;100.00;100136.30;1863719;77;20906;-93
2022/12/10 18:58:01;;;;;;;22.30;11.12;;;;;;;10.85;100.00;100121.97;1854905;77;21307;-93
2022/12/10 19:00:32;;;;;;;25.72;10.08;;;;;;;10.84;100.00;100124.24;1851530;77;20901;-92
2022/12/10 19:02:59;;;;;;;23.92;9.58;;;;;;;10.82;100.00;100133.52;1851650;76;20929;-94
2022/12/10 19:05:26;;;;;;;22.62;11.73;;;;;;;10.83;100.00;100126.48;1851522;76;21197;-93
2022/12/10 19:07:55;;;;;;;29.75;11.97;;;;;;;10.82;100.00;100136.63;1851003;77;20909;-93
2022/12/10 19:10:23;;;;;;;24.15;11.85;;;;;;;10.82;100.00;100144.02;1850803;77;20909;-93
2022/12/10 19:12:49;;;;;;;27.32;11.03;;;;;;;10.82;100.00;100141.39;1850550;77;20913;-93
2022/12/10 19:15:18;;;;;;;28.62;13.15;;;;;;;10.80;100.00;100136.72;1852381;77;21010;-93
2022/12/10 19:17:47;;;;;;;30.12;14.95;;;;;;;10.77;100.00;100127.28;1852834;76;21142;-91
2022/12/10 19:20:21;;;;;;;31.23;17.50;;;;;;;10.77;100.00;100133.84;1852520;77;20928;-91
2022/12/10 19:22:48;;;;;;;27.40;13.78;;;;;;;10.76;100.00;100135.25;1852459;76;20893;-92
2022/12/10 19:25:23;;;;;;;34.63;16.87;;;;;;;10.76;100.00;100138.73;1851463;77;21003;-93
2022/12/10 19:27:52;;;;;;;28.62;12.20;;;;;;;10.75;100.00;100132.27;1851636;77;20904;-91
2022/12/10 19:30:23;;;;;;;31.42;13.20;;;;;;;10.74;100.00;100132.75;1851859;77;21097;-92
2022/12/10 19:35:57;;;;;;;28.62;14.38;;;;;;;10.76;100.00;100126.06;1739781;79;20895;-93
2022/12/10 19:41:54;;;;;;;33.10;13.93;;;;;;;10.77;100.00;100112.86;1634147;85;21040;-93
2022/12/10 19:44:27;;;;;;;35.85;15.43;;;;;;;10.78;100.00;100116.31;1622962;83;21022;-92
2022/12/10 19:53:08;;;;;;;24.47;13.83;;;;;;;10.80;100.00;100120.98;1541855;88;21109;-91
2022/12/10 19:55:41;;;;;;;19.67;12.93;;;;;;;10.78;100.00;100124.18;1582031;89;21034;-93
2022/12/10 19:58:12;;;;;;;29.20;13.18;;;;;;;10.78;100.00;100127.67;1556408;90;21160;-94
2022/12/10 20:00:41;;;;;;;29.27;13.32;;;;;;;10.77;100.00;100122.52;1556261;92;20970;-94
2022/12/10 20:03:07;;;;;;;59.27;30.95;;;;;;;10.75;100.00;100123.92;1555854;91;20954;-93
2022/12/10 20:05:36;;;;;;;41.63;21.52;;;;;;;10.76;100.00;100128.69;1556683;91;21019;-94
2022/12/10 20:08:08;;;;;;;37.17;22.25;;;;;;;10.76;100.00;100122.99;1573209;90;20933;-94
2022/12/10 20:10:39;;;;;;;37.78;18.00;;;;;;;10.74;100.00;100128.81;1581057;90;20913;-94
2022/12/10 20:13:07;;;;;;;33.33;18.25;;;;;;;10.72;100.00;100129.39;1581157;90;20957;-95